Time;durP1;ratioP1;P1;durP2;ratioP2;P2;SDS_P1;SDS_P2;PMS_P1;PMS_P2;Temp;Humidity;BMP_temperature;BMP_pressure;BME280_temperature;BME280_humidity;BME280_pressure;Samples;Min_cycle;Max_cycle;Signal;HPM_P1;HPM_P2
2022/07/28 00:00:37;;;;;;;5.22;1.95;;;;;;;;;;4964135;28;20031;-60
2022/07/28 00:03:04;;;;;;;5.32;2.42;;;;;;;;;;4949615;28;20051;-60
2022/07/28 00:05:31;;;;;;;6.35;1.90;;;;;;;;;;4966153;28;20126;-61
2022/07/28 00:07:57;;;;;;;7.20;1.70;;;;;;;;;;4964797;28;20035;-61
2022/07/28 00:10:24;;;;;;;6.72;1.55;;;;;;;;;;4965312;28;20035;-60
2022/07/28 00:12:50;;;;;;;3.42;1.60;;;;;;;;;;4949964;28;20062;-61
2022/07/28 00:15:17;;;;;;;6.50;1.95;;;;;;;;;;4965514;28;20031;-62
2022/07/28 00:17:43;;;;;;;5.78;1.70;;;;;;;;;;4965088;28;20037;-61
2022/07/28 00:20:10;;;;;;;7.35;1.83;;;;;;;;;;4964509;28;20043;-59
2022/07/28 00:22:44;;;;;;;8.45;2.05;;;;;;;;;;4965273;28;20054;-60
2022/07/28 00:25:11;;;;;;;8.23;2.08;;;;;;;;;;4967279;28;20051;-61
2022/07/28 00:27:37;;;;;;;5.60;2.00;;;;;;;;;;4965256;28;20042;-61
2022/07/28 00:30:07;;;;;;;6.55;3.05;;;;;;;;;;4966491;28;20864;-61
2022/07/28 00:32:34;;;;;;;5.07;1.63;;;;;;;;;;4947793;28;20443;-61
2022/07/28 00:35:00;;;;;;;4.85;1.88;;;;;;;;;;4967695;28;20037;-61
2022/07/28 00:37:27;;;;;;;5.18;1.55;;;;;;;;;;4968151;28;20046;-61
2022/07/28 00:39:54;;;;;;;6.63;2.00;;;;;;;;;;4965564;28;20467;-61
2022/07/28 00:42:21;;;;;;;7.20;1.65;;;;;;;;;;4963649;28;20046;-61
2022/07/28 00:44:48;;;;;;;4.07;1.80;;;;;;;;;;4966480;28;20053;-61
2022/07/28 00:47:14;;;;;;;4.00;1.55;;;;;;;;;;4967355;28;20043;-61
2022/07/28 00:49:41;;;;;;;4.50;1.48;;;;;;;;;;4950370;28;20450;-61
2022/07/28 00:52:08;;;;;;;5.82;1.63;;;;;;;;;;4968988;28;20042;-61
2022/07/28 00:54:36;;;;;;;6.95;2.10;;;;;;;;;;4966358;28;20210;-61
2022/07/28 00:57:02;;;;;;;6.95;1.70;;;;;;;;;;4969568;28;20046;-61
2022/07/28 00:59:30;;;;;;;4.13;1.60;;;;;;;;;;4969309;28;20129;-61
2022/07/28 01:01:56;;;;;;;4.80;1.42;;;;;;;;;;4968952;28;20054;-60
2022/07/28 01:04:24;;;;;;;4.45;1.50;;;;;;;;;;4967140;28;20034;-62
2022/07/28 01:07:10;;;;;;;4.68;1.98;;;;;;;;;;4968683;28;20138;-61
2022/07/28 01:09:42;;;;;;;6.18;1.63;;;;;;;;;;4968315;28;20038;-62
2022/07/28 01:12:27;;;;;;;4.88;1.85;;;;;;;;;;4969071;28;20190;-61
2022/07/28 01:14:54;;;;;;;5.47;1.80;;;;;;;;;;4967837;28;20982;-61
2022/07/28 01:17:39;;;;;;;5.80;1.83;;;;;;;;;;4968079;28;20042;-61
2022/07/28 01:20:15;;;;;;;6.55;2.10;;;;;;;;;;4968334;28;20390;-62
2022/07/28 01:23:00;;;;;;;4.47;1.98;;;;;;;;;;4934673;28;20078;-62
2022/07/28 01:25:46;;;;;;;4.50;1.70;;;;;;;;;;4962972;28;20709;-59
2022/07/28 01:28:13;;;;;;;10.50;2.17;;;;;;;;;;4936148;28;20192;-62
2022/07/28 01:30:41;;;;;;;5.15;1.60;;;;;;;;;;4968915;28;20057;-62
2022/07/28 01:33:12;;;;;;;8.15;1.83;;;;;;;;;;4968495;28;20510;-59
2022/07/28 01:35:43;;;;;;;7.63;2.47;;;;;;;;;;4968596;28;20062;-60
2022/07/28 01:38:10;;;;;;;10.57;1.88;;;;;;;;;;4969684;28;20116;-63
2022/07/28 01:40:39;;;;;;;7.32;2.25;;;;;;;;;;4968572;28;20043;-61
2022/07/28 01:43:06;;;;;;;13.75;2.40;;;;;;;;;;4969948;28;20050;-61
2022/07/28 01:45:34;;;;;;;7.65;2.13;;;;;;;;;;4968256;28;20094;-61
2022/07/28 01:48:02;;;;;;;5.97;2.03;;;;;;;;;;4967657;28;20069;-61
2022/07/28 01:50:30;;;;;;;6.63;1.95;;;;;;;;;;4967742;28;20562;-61
2022/07/28 01:52:57;;;;;;;8.50;2.30;;;;;;;;;;4968464;28;20129;-62
2022/07/28 01:55:24;;;;;;;5.95;1.85;;;;;;;;;;4967348;28;22016;-60
2022/07/28 01:57:53;;;;;;;7.20;2.05;;;;;;;;;;4967669;28;20129;-60
2022/07/28 02:00:19;;;;;;;8.52;2.10;;;;;;;;;;4969718;28;20043;-60
2022/07/28 02:02:48;;;;;;;6.55;2.10;;;;;;;;;;4968363;28;20045;-60
2022/07/28 02:05:16;;;;;;;7.15;2.42;;;;;;;;;;4967855;28;20042;-61
2022/07/28 02:07:44;;;;;;;5.78;2.03;;;;;;;;;;4966525;28;20998;-61
2022/07/28 02:10:16;;;;;;;6.50;2.17;;;;;;;;;;4967788;28;20042;-61
2022/07/28 02:12:44;;;;;;;4.88;1.88;;;;;;;;;;4966299;28;21793;-61
2022/07/28 02:15:12;;;;;;;6.30;2.58;;;;;;;;;;4967464;28;20046;-61
2022/07/28 02:17:41;;;;;;;7.22;2.22;;;;;;;;;;4966513;28;20043;-61
2022/07/28 02:20:09;;;;;;;5.28;2.10;;;;;;;;;;4967553;28;21143;-61
2022/07/28 02:22:38;;;;;;;5.20;2.10;;;;;;;;;;4967636;28;20038;-61
2022/07/28 02:25:05;;;;;;;6.20;2.33;;;;;;;;;;4969420;28;20761;-61
2022/07/28 02:27:31;;;;;;;8.73;2.67;;;;;;;;;;4967494;28;20066;-62
2022/07/28 02:30:18;;;;;;;6.78;2.60;;;;;;;;;;4966945;28;20133;-60
2022/07/28 02:32:53;;;;;;;4.25;2.10;;;;;;;;;;4966276;28;20049;-60
2022/07/28 02:35:26;;;;;;;8.63;2.90;;;;;;;;;;4966224;28;20093;-60
2022/07/28 02:38:00;;;;;;;5.00;2.33;;;;;;;;;;4965075;28;21737;-61
2022/07/28 02:40:30;;;;;;;8.25;2.17;;;;;;;;;;4965582;28;20104;-61
2022/07/28 02:42:58;;;;;;;9.18;2.42;;;;;;;;;;4966719;28;20063;-60
2022/07/28 02:45:26;;;;;;;7.70;2.33;;;;;;;;;;4965568;28;20045;-59
2022/07/28 02:47:56;;;;;;;6.20;2.45;;;;;;;;;;4966482;28;20489;-60
2022/07/28 02:50:24;;;;;;;7.63;2.47;;;;;;;;;;4965906;28;20038;-60
2022/07/28 02:52:55;;;;;;;13.20;2.42;;;;;;;;;;4967630;28;20034;-60
2022/07/28 02:55:22;;;;;;;10.20;3.08;;;;;;;;;;4965602;28;20467;-61
2022/07/28 02:57:48;;;;;;;7.18;2.88;;;;;;;;;;4966315;28;20050;-60
2022/07/28 03:00:15;;;;;;;15.75;2.63;;;;;;;;;;4966372;28;20038;-61
2022/07/28 03:02:47;;;;;;;6.78;2.22;;;;;;;;;;4966568;28;20061;-59
2022/07/28 03:05:14;;;;;;;9.35;2.35;;;;;;;;;;4950447;28;20038;-61
2022/07/28 03:07:42;;;;;;;6.63;2.13;;;;;;;;;;4965355;28;20416;-61
2022/07/28 03:10:08;;;;;;;7.13;2.47;;;;;;;;;;4967618;28;20483;-60
2022/07/28 03:12:35;;;;;;;7.43;2.35;;;;;;;;;;4965722;28;20058;-61
2022/07/28 03:15:02;;;;;;;8.60;4.40;;;;;;;;;;4966357;28;20145;-62
2022/07/28 03:17:29;;;;;;;9.50;2.67;;;;;;;;;;4965163;28;20057;-61
2022/07/28 03:19:55;;;;;;;5.90;2.63;;;;;;;;;;4966124;28;20047;-62
2022/07/28 03:22:22;;;;;;;11.57;2.60;;;;;;;;;;4965021;28;20058;-61
2022/07/28 03:24:50;;;;;;;10.48;2.75;;;;;;;;;;4966792;28;20046;-62
2022/07/28 03:27:20;;;;;;;7.95;2.75;;;;;;;;;;4967537;28;20554;-63
2022/07/28 03:29:50;;;;;;;8.75;2.92;;;;;;;;;;4965736;28;20038;-64
2022/07/28 03:32:18;;;;;;;6.65;2.55;;;;;;;;;;4967738;28;20046;-63
2022/07/28 03:34:45;;;;;;;7.25;2.65;;;;;;;;;;4967328;28;20045;-64
2022/07/28 03:37:12;;;;;;;9.60;2.60;;;;;;;;;;4966200;28;20040;-63
2022/07/28 03:39:44;;;;;;;9.07;2.70;;;;;;;;;;4966321;28;20568;-63
2022/07/28 03:42:11;;;;;;;6.88;2.47;;;;;;;;;;4966894;28;20097;-64
2022/07/28 03:44:38;;;;;;;6.72;2.53;;;;;;;;;;4967488;28;20115;-64
2022/07/28 03:47:05;;;;;;;8.15;2.53;;;;;;;;;;4966279;28;20081;-63
2022/07/28 03:49:32;;;;;;;8.27;2.72;;;;;;;;;;4965959;28;20092;-62
2022/07/28 03:51:58;;;;;;;8.55;2.47;;;;;;;;;;4964833;28;20034;-63
2022/07/28 03:54:25;;;;;;;10.77;4.05;;;;;;;;;;4965688;28;20050;-63
2022/07/28 03:56:52;;;;;;;8.25;3.22;;;;;;;;;;4965014;28;20212;-60
2022/07/28 03:59:19;;;;;;;10.68;3.00;;;;;;;;;;4966210;28;20050;-61
2022/07/28 04:01:45;;;;;;;9.52;2.60;;;;;;;;;;4964686;28;20066;-62
2022/07/28 04:04:12;;;;;;;5.47;2.45;;;;;;;;;;4965590;28;20035;-61
2022/07/28 04:06:39;;;;;;;7.18;2.97;;;;;;;;;;4963975;28;20571;-62
2022/07/28 04:09:05;;;;;;;7.15;2.75;;;;;;;;;;4947369;28;20641;-62
2022/07/28 04:11:32;;;;;;;9.43;2.85;;;;;;;;;;4965154;28;20112;-61
2022/07/28 04:13:58;;;;;;;8.30;2.92;;;;;;;;;;4965406;28;20046;-61
2022/07/28 04:16:25;;;;;;;6.10;2.85;;;;;;;;;;4963964;28;20062;-62
2022/07/28 04:18:52;;;;;;;6.40;2.42;;;;;;;;;;4965199;28;20259;-61
2022/07/28 04:21:18;;;;;;;6.10;2.50;;;;;;;;;;4965103;28;20093;-61
2022/07/28 04:23:45;;;;;;;8.35;2.72;;;;;;;;;;4965077;28;20494;-61
2022/07/28 04:26:12;;;;;;;8.48;2.58;;;;;;;;;;4965820;28;20061;-61
2022/07/28 04:28:38;;;;;;;7.65;2.95;;;;;;;;;;4965163;28;20117;-59
2022/07/28 04:31:05;;;;;;;7.63;2.97;;;;;;;;;;4965099;28;20038;-61
2022/07/28 04:33:31;;;;;;;8.20;2.95;;;;;;;;;;4963817;28;20053;-61
2022/07/28 04:36:00;;;;;;;7.43;3.08;;;;;;;;;;4964535;28;20047;-61
2022/07/28 04:38:26;;;;;;;14.38;3.10;;;;;;;;;;4965725;28;20050;-60
2022/07/28 04:40:53;;;;;;;10.05;3.25;;;;;;;;;;4965832;28;20043;-60
2022/07/28 04:43:20;;;;;;;6.60;2.80;;;;;;;;;;4965688;28;20516;-60
2022/07/28 04:45:47;;;;;;;11.10;3.08;;;;;;;;;;4964157;28;20041;-61
2022/07/28 04:48:13;;;;;;;7.80;2.72;;;;;;;;;;4965458;28;20039;-61
2022/07/28 04:50:41;;;;;;;6.45;2.85;;;;;;;;;;4964845;28;20031;-59
2022/07/28 04:53:07;;;;;;;6.68;2.58;;;;;;;;;;4964374;28;20046;-60
2022/07/28 04:55:34;;;;;;;9.52;2.80;;;;;;;;;;4965153;28;20511;-61
2022/07/28 04:58:01;;;;;;;7.60;2.88;;;;;;;;;;4964846;28;20038;-61
2022/07/28 05:00:27;;;;;;;5.85;2.70;;;;;;;;;;4964222;28;20066;-60
2022/07/28 05:02:57;;;;;;;9.70;2.78;;;;;;;;;;4966444;28;20775;-60
2022/07/28 05:05:24;;;;;;;8.18;2.83;;;;;;;;;;4965569;28;20125;-61
2022/07/28 05:07:50;;;;;;;7.30;2.80;;;;;;;;;;4964729;28;20110;-60
2022/07/28 05:10:17;;;;;;;5.63;2.67;;;;;;;;;;4966243;28;20061;-59
2022/07/28 05:12:44;;;;;;;5.47;2.55;;;;;;;;;;4964798;28;20200;-61
2022/07/28 05:15:10;;;;;;;8.80;2.55;;;;;;;;;;4965356;28;20126;-59
2022/07/28 05:17:37;;;;;;;6.95;3.08;;;;;;;;;;4963839;28;20137;-60
2022/07/28 05:20:04;;;;;;;5.45;2.80;;;;;;;;;;4965079;28;20034;-60
2022/07/28 05:22:52;;;;;;;6.60;2.63;;;;;;;;;;4897159;29;20055;-61
2022/07/28 05:25:22;;;;;;;8.88;3.05;;;;;;;;;;4895665;29;20044;-60
2022/07/28 05:27:49;;;;;;;7.35;2.83;;;;;;;;;;4895361;29;20036;-57
2022/07/28 05:30:17;;;;;;;8.55;2.72;;;;;;;;;;4896362;29;20106;-60
2022/07/28 05:32:44;;;;;;;4.47;2.40;;;;;;;;;;4896096;29;20055;-60
2022/07/28 05:35:11;;;;;;;5.03;2.50;;;;;;;;;;4894579;29;20172;-60
2022/07/28 05:37:37;;;;;;;9.98;2.55;;;;;;;;;;4895607;29;20047;-60
2022/07/28 05:40:09;;;;;;;9.07;2.65;;;;;;;;;;4896088;29;20406;-60
2022/07/28 05:42:35;;;;;;;6.38;2.90;;;;;;;;;;4899401;29;20105;-58
2022/07/28 05:45:03;;;;;;;7.10;2.45;;;;;;;;;;4895417;29;20068;-58
2022/07/28 05:47:30;;;;;;;8.52;3.00;;;;;;;;;;4895650;29;20105;-61
2022/07/28 05:50:02;;;;;;;7.85;3.00;;;;;;;;;;4895172;29;20767;-60
2022/07/28 05:52:31;;;;;;;8.25;3.10;;;;;;;;;;4895462;29;20071;-60
2022/07/28 05:54:57;;;;;;;12.10;2.92;;;;;;;;;;4896557;29;20060;-60
2022/07/28 05:57:24;;;;;;;6.93;2.70;;;;;;;;;;4894818;29;20140;-59
2022/07/28 05:59:51;;;;;;;7.25;2.70;;;;;;;;;;4917391;28;20177;-60
2022/07/28 06:02:17;;;;;;;8.90;3.40;;;;;;;;;;4953821;28;20113;-61
2022/07/28 06:04:44;;;;;;;6.25;2.70;;;;;;;;;;4966556;28;20444;-61
2022/07/28 06:07:11;;;;;;;8.32;3.00;;;;;;;;;;4966576;28;20931;-61
2022/07/28 06:09:37;;;;;;;7.57;3.00;;;;;;;;;;4967078;28;20130;-61
2022/07/28 06:12:05;;;;;;;6.72;2.97;;;;;;;;;;4967524;28;20058;-60
2022/07/28 06:14:31;;;;;;;8.07;3.25;;;;;;;;;;4967602;28;20120;-60
2022/07/28 06:16:58;;;;;;;6.93;2.85;;;;;;;;;;4967142;28;20039;-58
2022/07/28 06:19:24;;;;;;;12.13;3.45;;;;;;;;;;4967204;28;20043;-61
2022/07/28 06:21:51;;;;;;;7.47;2.55;;;;;;;;;;4966836;28;20249;-60
2022/07/28 06:24:18;;;;;;;8.23;3.40;;;;;;;;;;4966670;28;20045;-60
2022/07/28 06:26:44;;;;;;;9.95;3.00;;;;;;;;;;4966193;28;20043;-63
2022/07/28 06:29:11;;;;;;;6.07;3.10;;;;;;;;;;4967814;28;20130;-60
2022/07/28 06:31:38;;;;;;;6.85;2.75;;;;;;;;;;4966610;28;20098;-61
2022/07/28 06:34:05;;;;;;;8.63;2.90;;;;;;;;;;4965765;28;20050;-61
2022/07/28 06:36:31;;;;;;;7.55;3.25;;;;;;;;;;4965099;28;20050;-61
2022/07/28 06:38:58;;;;;;;6.45;2.78;;;;;;;;;;4969021;28;20038;-60
2022/07/28 06:41:24;;;;;;;7.70;3.30;;;;;;;;;;4964267;28;20053;-61
2022/07/28 06:43:51;;;;;;;8.07;3.08;;;;;;;;;;4967255;28;20415;-61
2022/07/28 06:46:18;;;;;;;8.95;2.95;;;;;;;;;;4967271;28;20053;-59
2022/07/28 06:48:45;;;;;;;7.70;2.78;;;;;;;;;;4967507;28;20050;-61
2022/07/28 06:51:13;;;;;;;9.07;3.08;;;;;;;;;;4966318;28;20053;-61
2022/07/28 06:53:40;;;;;;;6.32;2.75;;;;;;;;;;4964863;28;20123;-61
2022/07/28 06:56:06;;;;;;;4.93;2.72;;;;;;;;;;4966388;28;20059;-60
2022/07/28 06:58:33;;;;;;;7.72;2.63;;;;;;;;;;4966022;28;20043;-61
2022/07/28 07:01:01;;;;;;;7.43;2.55;;;;;;;;;;4966740;28;20050;-61
2022/07/28 07:03:27;;;;;;;5.45;2.63;;;;;;;;;;4966095;28;20039;-61
2022/07/28 07:05:54;;;;;;;6.97;2.97;;;;;;;;;;4965795;28;20043;-61
2022/07/28 07:08:21;;;;;;;7.65;2.75;;;;;;;;;;4966456;28;20834;-61
2022/07/28 07:10:47;;;;;;;6.55;2.70;;;;;;;;;;4967304;28;20041;-60
2022/07/28 07:13:14;;;;;;;9.63;3.00;;;;;;;;;;4966365;28;20084;-61
2022/07/28 07:15:41;;;;;;;10.52;2.75;;;;;;;;;;4965682;28;22780;-62
2022/07/28 07:18:07;;;;;;;11.65;2.75;;;;;;;;;;4966358;28;20082;-62
2022/07/28 07:20:34;;;;;;;4.75;2.50;;;;;;;;;;4964877;28;20050;-61
2022/07/28 07:23:01;;;;;;;7.95;2.67;;;;;;;;;;4966778;28;20050;-60
2022/07/28 07:25:27;;;;;;;7.18;2.55;;;;;;;;;;4965946;28;20131;-61
2022/07/28 07:27:54;;;;;;;7.55;2.78;;;;;;;;;;4966167;28;20069;-62
2022/07/28 07:30:20;;;;;;;6.82;2.75;;;;;;;;;;4966122;28;20034;-62
2022/07/28 07:32:47;;;;;;;7.65;3.00;;;;;;;;;;4965777;28;20073;-61
2022/07/28 07:35:16;;;;;;;5.57;2.55;;;;;;;;;;4965979;28;20773;-61
2022/07/28 07:37:43;;;;;;;12.65;3.30;;;;;;;;;;4965972;28;20085;-61
2022/07/28 07:40:09;;;;;;;11.45;2.83;;;;;;;;;;4966465;28;20429;-61
2022/07/28 07:42:36;;;;;;;9.30;2.38;;;;;;;;;;4965882;28;20061;-60
2022/07/28 07:45:03;;;;;;;7.57;2.60;;;;;;;;;;4964355;28;20142;-60
2022/07/28 07:47:30;;;;;;;6.82;3.05;;;;;;;;;;4966403;28;20522;-60
2022/07/28 07:49:56;;;;;;;7.38;2.45;;;;;;;;;;4966318;28;20062;-60
2022/07/28 07:52:23;;;;;;;6.97;2.92;;;;;;;;;;4964421;28;20038;-60
2022/07/28 07:54:50;;;;;;;6.57;3.03;;;;;;;;;;4965276;28;20109;-61
2022/07/28 07:57:16;;;;;;;7.38;2.70;;;;;;;;;;4965480;28;20077;-60
2022/07/28 07:59:43;;;;;;;5.70;2.70;;;;;;;;;;4964684;28;20181;-60
2022/07/28 08:02:09;;;;;;;7.97;2.83;;;;;;;;;;4964018;28;20057;-58
2022/07/28 08:04:36;;;;;;;9.55;3.10;;;;;;;;;;4965113;28;21446;-61
2022/07/28 08:07:03;;;;;;;6.63;2.75;;;;;;;;;;4967485;28;20049;-59
2022/07/28 08:09:29;;;;;;;7.43;2.50;;;;;;;;;;4967066;28;21027;-60
2022/07/28 08:11:56;;;;;;;9.55;2.65;;;;;;;;;;4966614;28;20819;-60
2022/07/28 08:14:22;;;;;;;7.65;2.80;;;;;;;;;;4965745;28;20039;-59
2022/07/28 08:16:49;;;;;;;6.20;2.53;;;;;;;;;;4965084;28;20472;-59
2022/07/28 08:19:16;;;;;;;5.90;2.63;;;;;;;;;;4965720;28;20053;-59
2022/07/28 08:21:42;;;;;;;7.63;2.53;;;;;;;;;;4964046;28;20129;-60
2022/07/28 08:24:09;;;;;;;10.35;2.88;;;;;;;;;;4966012;28;20066;-62
2022/07/28 08:26:36;;;;;;;5.18;2.45;;;;;;;;;;4964551;28;20518;-60
2022/07/28 08:29:02;;;;;;;8.18;2.80;;;;;;;;;;4964352;28;20039;-60
2022/07/28 08:31:29;;;;;;;9.68;2.75;;;;;;;;;;4945699;28;20180;-60
2022/07/28 08:33:57;;;;;;;5.18;2.38;;;;;;;;;;4965536;28;20050;-60
2022/07/28 08:36:23;;;;;;;7.05;2.30;;;;;;;;;;4964312;28;20507;-58
2022/07/28 08:38:50;;;;;;;7.88;2.58;;;;;;;;;;4965798;28;20829;-59
2022/07/28 08:41:20;;;;;;;7.38;2.88;;;;;;;;;;4965042;28;20081;-59
2022/07/28 08:43:47;;;;;;;9.85;3.05;;;;;;;;;;4964571;28;20496;-60
2022/07/28 08:46:14;;;;;;;4.78;2.50;;;;;;;;;;4964421;28;20058;-59
2022/07/28 08:48:42;;;;;;;6.13;2.53;;;;;;;;;;4964163;28;20880;-59
2022/07/28 08:51:10;;;;;;;5.90;2.65;;;;;;;;;;4965065;28;20035;-60
2022/07/28 08:53:39;;;;;;;16.05;2.83;;;;;;;;;;4964781;28;20495;-60
2022/07/28 08:56:09;;;;;;;5.82;2.67;;;;;;;;;;4965382;28;20051;-60
2022/07/28 08:58:38;;;;;;;8.77;2.60;;;;;;;;;;4968400;28;20129;-57
2022/07/28 09:01:07;;;;;;;6.30;2.78;;;;;;;;;;4968200;28;20035;-58
2022/07/28 09:03:34;;;;;;;7.70;2.50;;;;;;;;;;4968129;28;20050;-59
2022/07/28 09:06:01;;;;;;;6.53;2.80;;;;;;;;;;4967938;28;20343;-60
2022/07/28 09:08:27;;;;;;;8.70;3.00;;;;;;;;;;4950865;28;20043;-60
2022/07/28 09:10:54;;;;;;;7.75;2.80;;;;;;;;;;4967447;28;20436;-58
2022/07/28 09:13:21;;;;;;;8.77;2.78;;;;;;;;;;4950955;28;20157;-59
2022/07/28 09:15:47;;;;;;;5.55;2.50;;;;;;;;;;4968388;28;20042;-59
2022/07/28 09:18:14;;;;;;;6.63;2.97;;;;;;;;;;4964996;28;20054;-60
2022/07/28 09:20:42;;;;;;;11.73;2.80;;;;;;;;;;4966786;28;20410;-60
2022/07/28 09:23:09;;;;;;;8.13;2.88;;;;;;;;;;4967038;28;20494;-60
2022/07/28 09:25:35;;;;;;;10.38;2.88;;;;;;;;;;4967765;28;20049;-59
2022/07/28 09:28:20;;;;;;;5.85;2.55;;;;;;;;;;4968651;28;20461;-59
2022/07/28 09:30:48;;;;;;;6.63;2.50;;;;;;;;;;4968131;28;20158;-59
2022/07/28 09:33:21;;;;;;;8.48;2.65;;;;;;;;;;4969817;28;20034;-60
2022/07/28 09:35:48;;;;;;;7.20;2.40;;;;;;;;;;4966968;28;20117;-59
2022/07/28 09:38:14;;;;;;;6.53;2.65;;;;;;;;;;4968456;28;20134;-60
2022/07/28 09:40:41;;;;;;;6.53;2.60;;;;;;;;;;4967208;28;20057;-60
2022/07/28 09:43:09;;;;;;;9.48;2.40;;;;;;;;;;4968588;28;20216;-59
2022/07/28 09:45:36;;;;;;;5.88;2.28;;;;;;;;;;4967495;28;20038;-60
2022/07/28 09:48:12;;;;;;;8.27;2.70;;;;;;;;;;4970209;28;20050;-61
2022/07/28 09:50:40;;;;;;;6.45;2.70;;;;;;;;;;4966776;28;20106;-60
2022/07/28 09:53:35;;;;;;;5.85;2.75;;;;;;;;;;4969030;28;20052;-59
2022/07/28 09:56:02;;;;;;;5.95;2.90;;;;;;;;;;4951705;28;20145;-59
2022/07/28 09:58:29;;;;;;;6.47;2.75;;;;;;;;;;4967312;28;20541;-59
2022/07/28 10:01:03;;;;;;;9.75;2.60;;;;;;;;;;4966883;28;20038;-59
2022/07/28 10:03:30;;;;;;;6.13;2.67;;;;;;;;;;4965468;28;20038;-56
2022/07/28 10:05:57;;;;;;;6.75;2.85;;;;;;;;;;4967315;28;20041;-59
2022/07/28 10:08:42;;;;;;;6.03;2.47;;;;;;;;;;4965853;28;20118;-60
2022/07/28 10:11:10;;;;;;;8.15;2.67;;;;;;;;;;4967441;28;20042;-59
2022/07/28 10:13:50;;;;;;;5.07;2.50;;;;;;;;;;4967274;28;20035;-58
2022/07/28 10:16:17;;;;;;;8.95;2.92;;;;;;;;;;4968448;28;20042;-57
2022/07/28 10:18:44;;;;;;;9.20;2.50;;;;;;;;;;4967687;28;20045;-59
2022/07/28 10:21:13;;;;;;;7.35;2.63;;;;;;;;;;4967130;28;20523;-58
2022/07/28 10:23:41;;;;;;;8.98;2.95;;;;;;;;;;4965991;28;20037;-60
2022/07/28 10:26:10;;;;;;;6.10;2.35;;;;;;;;;;4966611;28;20642;-58
2022/07/28 10:28:38;;;;;;;10.45;3.25;;;;;;;;;;4966484;28;20035;-59
2022/07/28 10:31:05;;;;;;;6.10;2.75;;;;;;;;;;4967869;28;20065;-57
2022/07/28 10:33:32;;;;;;;7.35;2.60;;;;;;;;;;4948881;28;20081;-59
2022/07/28 10:35:59;;;;;;;7.57;2.78;;;;;;;;;;4965202;28;20423;-58
2022/07/28 10:38:33;;;;;;;7.38;2.55;;;;;;;;;;4968017;28;20042;-58
2022/07/28 10:41:02;;;;;;;12.23;3.05;;;;;;;;;;4968150;28;21057;-57
2022/07/28 10:43:30;;;;;;;7.63;3.40;;;;;;;;;;4966012;28;20456;-59
2022/07/28 10:45:59;;;;;;;7.60;3.10;;;;;;;;;;4966560;28;20050;-59
2022/07/28 10:48:26;;;;;;;9.68;3.00;;;;;;;;;;4966482;28;20057;-62
2022/07/28 10:50:58;;;;;;;8.43;2.88;;;;;;;;;;4967581;28;20777;-59
2022/07/28 10:53:33;;;;;;;6.07;2.90;;;;;;;;;;4966282;28;20054;-59
2022/07/28 10:56:04;;;;;;;5.45;2.63;;;;;;;;;;4967175;28;20747;-58
2022/07/28 10:58:40;;;;;;;8.32;3.13;;;;;;;;;;4965481;28;20380;-59
2022/07/28 11:01:07;;;;;;;6.18;2.65;;;;;;;;;;4966086;28;20125;-59
2022/07/28 11:03:43;;;;;;;6.88;2.95;;;;;;;;;;4965707;28;20046;-58
2022/07/28 11:06:28;;;;;;;9.43;3.00;;;;;;;;;;4965663;28;20053;-59
2022/07/28 11:08:59;;;;;;;6.53;2.55;;;;;;;;;;4967167;28;20051;-58
2022/07/28 11:11:44;;;;;;;8.77;2.85;;;;;;;;;;4963878;28;20039;-59
2022/07/28 11:14:33;;;;;;;6.10;2.88;;;;;;;;;;4967848;28;20046;-60
2022/07/28 11:17:00;;;;;;;7.55;3.38;;;;;;;;;;4966677;28;20046;-59
2022/07/28 11:19:28;;;;;;;8.93;3.58;;;;;;;;;;4967107;28;20037;-60
2022/07/28 11:22:13;;;;;;;10.48;3.00;;;;;;;;;;4965392;28;20078;-59
2022/07/28 11:25:01;;;;;;;6.80;2.95;;;;;;;;;;4964590;28;21828;-60
2022/07/28 11:27:45;;;;;;;8.82;3.00;;;;;;;;;;4965974;28;20134;-60
2022/07/28 11:30:27;;;;;;;5.40;2.70;;;;;;;;;;4967060;28;20046;-59
2022/07/28 11:32:54;;;;;;;6.07;2.88;;;;;;;;;;4964923;28;20089;-58
2022/07/28 11:35:24;;;;;;;6.80;3.10;;;;;;;;;;4965567;28;20464;-60
2022/07/28 11:38:03;;;;;;;7.30;3.17;;;;;;;;;;4964787;28;20077;-60
2022/07/28 11:40:35;;;;;;;8.18;2.65;;;;;;;;;;4965475;28;20157;-58
2022/07/28 11:43:24;;;;;;;10.82;3.40;;;;;;;;;;4966010;28;20050;-59
2022/07/28 11:46:07;;;;;;;9.82;3.15;;;;;;;;;;4936671;28;20047;-55
2022/07/28 11:48:35;;;;;;;9.32;3.10;;;;;;;;;;4965017;28;20035;-58
2022/07/28 11:51:04;;;;;;;6.97;3.22;;;;;;;;;;4965569;28;20047;-58
2022/07/28 11:53:37;;;;;;;9.35;3.40;;;;;;;;;;4965179;28;20078;-58
2022/07/28 11:56:08;;;;;;;7.75;3.20;;;;;;;;;;4965445;28;20518;-58
2022/07/28 11:58:35;;;;;;;7.22;3.25;;;;;;;;;;4965630;28;20043;-57
2022/07/28 12:01:16;;;;;;;7.93;2.97;;;;;;;;;;4966055;28;20049;-57
2022/07/28 12:03:43;;;;;;;6.53;2.80;;;;;;;;;;4965179;28;20146;-59
2022/07/28 12:06:10;;;;;;;7.13;3.13;;;;;;;;;;4964437;28;20136;-58
2022/07/28 12:08:56;;;;;;;11.07;3.58;;;;;;;;;;4965006;28;20078;-59
2022/07/28 12:11:26;;;;;;;11.20;3.30;;;;;;;;;;4945071;28;20049;-58
2022/07/28 12:14:02;;;;;;;9.68;3.97;;;;;;;;;;4946823;28;20039;-58
2022/07/28 12:16:29;;;;;;;7.78;3.30;;;;;;;;;;4964295;28;20162;-58
2022/07/28 12:18:55;;;;;;;5.50;2.83;;;;;;;;;;4966118;28;20035;-61
2022/07/28 12:21:40;;;;;;;8.40;3.33;;;;;;;;;;4963303;28;20066;-62
2022/07/28 12:24:07;;;;;;;8.80;3.38;;;;;;;;;;4965711;28;20042;-62
2022/07/28 12:26:35;;;;;;;7.60;3.10;;;;;;;;;;4963754;28;20035;-63
2022/07/28 12:29:02;;;;;;;9.35;3.20;;;;;;;;;;4965587;28;20054;-63
2022/07/28 12:31:31;;;;;;;8.98;3.08;;;;;;;;;;4936543;28;21146;-65
2022/07/28 12:34:05;;;;;;;7.47;3.50;;;;;;;;;;4967572;28;20073;-65
2022/07/28 12:36:33;;;;;;;7.07;3.63;;;;;;;;;;4950664;28;20173;-62
2022/07/28 12:39:00;;;;;;;11.98;5.32;;;;;;;;;;4939374;28;20117;-63
2022/07/28 12:41:34;;;;;;;7.80;3.40;;;;;;;;;;4965718;28;20495;-63
2022/07/28 12:44:02;;;;;;;9.77;3.60;;;;;;;;;;4966867;28;20083;-63
2022/07/28 12:46:29;;;;;;;7.00;3.50;;;;;;;;;;4968286;28;20062;-63
2022/07/28 12:48:57;;;;;;;7.45;3.13;;;;;;;;;;4970865;28;20893;-63
2022/07/28 12:51:49;;;;;;;7.85;3.00;;;;;;;;;;4968438;28;20034;-62
2022/07/28 12:54:16;;;;;;;8.10;3.40;;;;;;;;;;4966137;28;20177;-63
2022/07/28 12:56:46;;;;;;;10.75;3.65;;;;;;;;;;4968216;28;20038;-63
2022/07/28 12:59:13;;;;;;;6.40;2.65;;;;;;;;;;4968344;28;20129;-63
2022/07/28 13:01:50;;;;;;;11.25;3.33;;;;;;;;;;4966696;28;20055;-63
2022/07/28 13:04:18;;;;;;;8.75;3.30;;;;;;;;;;4952008;28;20133;-57
2022/07/28 13:06:55;;;;;;;11.15;3.70;;;;;;;;;;4969606;28;20106;-64
2022/07/28 13:09:22;;;;;;;14.60;4.53;;;;;;;;;;4938886;28;20049;-66
2022/07/28 13:11:49;;;;;;;11.40;3.90;;;;;;;;;;4969536;28;20069;-64
2022/07/28 13:14:15;;;;;;;9.20;3.03;;;;;;;;;;4968255;28;20081;-63
2022/07/28 13:16:43;;;;;;;9.35;3.30;;;;;;;;;;4968898;28;20054;-63
2022/07/28 13:19:20;;;;;;;6.18;3.08;;;;;;;;;;4951372;28;20106;-64
2022/07/28 13:21:50;;;;;;;7.38;3.38;;;;;;;;;;4966914;28;20058;-64
2022/07/28 13:24:18;;;;;;;8.20;3.80;;;;;;;;;;4969859;28;20049;-64
2022/07/28 13:26:45;;;;;;;12.68;3.38;;;;;;;;;;4968594;28;20118;-63
2022/07/28 13:29:13;;;;;;;12.73;3.70;;;;;;;;;;4966520;28;20632;-63
2022/07/28 13:31:39;;;;;;;8.70;3.40;;;;;;;;;;4968057;28;20062;-62
2022/07/28 13:34:07;;;;;;;10.60;3.63;;;;;;;;;;4970763;28;20038;-62
2022/07/28 13:36:33;;;;;;;8.63;4.10;;;;;;;;;;4968783;28;20057;-62
2022/07/28 13:39:00;;;;;;;7.35;3.30;;;;;;;;;;4968602;28;20393;-59
2022/07/28 13:41:27;;;;;;;10.00;3.67;;;;;;;;;;4967350;28;21108;-60
2022/07/28 13:43:57;;;;;;;9.27;3.88;;;;;;;;;;4951629;28;20050;-59
2022/07/28 13:46:25;;;;;;;9.10;3.53;;;;;;;;;;4969162;28;20046;-60
2022/07/28 13:48:51;;;;;;;9.13;3.67;;;;;;;;;;4968703;28;20553;-59
2022/07/28 13:51:18;;;;;;;9.35;4.03;;;;;;;;;;4967562;28;20496;-59
2022/07/28 13:53:45;;;;;;;11.80;3.80;;;;;;;;;;4967162;28;20086;-62
2022/07/28 13:56:11;;;;;;;12.55;3.50;;;;;;;;;;4968042;28;20047;-59
2022/07/28 13:58:38;;;;;;;10.35;3.97;;;;;;;;;;4950690;28;20038;-59
2022/07/28 14:01:05;;;;;;;8.15;3.72;;;;;;;;;;4966949;28;20042;-59
2022/07/28 14:03:32;;;;;;;16.85;3.92;;;;;;;;;;4968144;28;20030;-60
2022/07/28 14:05:59;;;;;;;13.40;3.47;;;;;;;;;;4968058;28;20035;-59
2022/07/28 14:08:26;;;;;;;15.93;3.95;;;;;;;;;;4966895;28;20181;-58
2022/07/28 14:10:55;;;;;;;7.97;3.42;;;;;;;;;;4966659;28;20430;-60
2022/07/28 14:13:22;;;;;;;9.95;3.63;;;;;;;;;;4950410;28;20621;-60
2022/07/28 14:15:48;;;;;;;12.48;4.20;;;;;;;;;;4968242;28;20077;-59
2022/07/28 14:18:15;;;;;;;16.63;4.07;;;;;;;;;;4967165;28;20031;-60
2022/07/28 14:20:42;;;;;;;12.65;3.55;;;;;;;;;;4966544;28;20034;-60
2022/07/28 14:23:08;;;;;;;9.93;3.85;;;;;;;;;;4968288;28;20137;-58
2022/07/28 14:25:35;;;;;;;11.55;3.58;;;;;;;;;;4967165;28;20042;-59
2022/07/28 14:28:02;;;;;;;9.45;3.33;;;;;;;;;;4966940;28;20042;-59
2022/07/28 14:30:29;;;;;;;12.82;3.75;;;;;;;;;;4966768;28;20046;-59
2022/07/28 14:32:56;;;;;;;11.30;3.95;;;;;;;;;;4967983;28;20168;-60
2022/07/28 14:35:23;;;;;;;9.85;3.50;;;;;;;;;;4963859;28;20082;-59
2022/07/28 14:37:49;;;;;;;11.43;3.70;;;;;;;;;;4967601;28;20172;-59
2022/07/28 14:40:16;;;;;;;12.02;3.95;;;;;;;;;;4966004;28;20437;-59
2022/07/28 14:42:43;;;;;;;10.75;4.25;;;;;;;;;;4967379;28;20479;-60
2022/07/28 14:45:10;;;;;;;14.68;4.55;;;;;;;;;;4966651;28;20030;-59
2022/07/28 14:47:37;;;;;;;10.80;3.20;;;;;;;;;;4966921;28;20602;-59
2022/07/28 14:50:04;;;;;;;11.65;3.75;;;;;;;;;;4966305;28;20043;-58